Nissos Mykonos — SYJZ — position and weather

sailwx.info

Track history (hours):
 
Tides and Currents Weather Stations Pressure Air Temp Water Temp Dewpoint Dewpoint Depression Visibility Wind Speed Wind Dir Waves Ship Positions

Nissos Mykonos

Last reported at 2015-Mar-02 17:07 UTC. Time now 2015-Mar-03 07:29 UTC.
Position N 37°31' E 025°22'.

Length 141 m; draft 5.2 m.

Type: Passenger vessel. MMSI: 240389000.

Date/timePositionNaut miles runAvg speedWind from/ knotsBaromVisibWave heightAir tempDewpointWater temp
2015-Mar-02 17:07N 37°31' E 025°22'1222.0
2015-Mar-02 16:33N 37°28' E 025°07'1412.8
2015-Mar-02 15:26N 37°32' E 024°50'4921.6
2015-Mar-02 13:10N 37°38' E 023°49'1320.8
2015-Mar-02 12:33N 37°48' E 023°38'9 8.7
2015-Mar-02 11:33N 37°57' E 023°38'0 0.0
2015-Mar-02 10:33N 37°57' E 023°38'0 0.0
2015-Mar-02 09:32N 37°57' E 023°38'0 0.0
2015-Mar-02 08:34N 37°57' E 023°38'0 0.0
2015-Mar-02 06:22N 37°57' E 023°38'0 0.0
2015-Mar-02 05:33N 37°57' E 023°38'0 0.0
2015-Mar-02 04:33N 37°57' E 023°38'0 0.0
2015-Mar-02 03:34N 37°57' E 023°38'0 0.0
2015-Mar-02 02:34N 37°57' E 023°38'0 0.0
2015-Mar-02 01:34N 37°57' E 023°38'0 0.0
2015-Mar-02 00:33N 37°57' E 023°38'0 0.0
2015-Mar-01 23:34N 37°57' E 023°38'0 0.0
2015-Mar-01 22:33N 37°57' E 023°38'0 0.0
2015-Mar-01 21:34N 37°57' E 023°38'1211.7
2015-Mar-01 20:34N 37°46' E 023°43'6220.6
2015-Mar-01 17:33N 37°26' E 024°57'1616.7
2015-Mar-01 16:33N 37°28' E 025°18'1513.3
2015-Mar-01 15:26N 37°33' E 025°35'167 9.3
2015-Feb-28 21:33N 40°15' E 024°44'2222.8
2015-Feb-28 20:34N 40°35' E 024°31'2121.3
2015-Feb-28 19:33N 40°56' E 024°25'0 0.0
2015-Feb-28 18:33N 40°56' E 024°25'0 0.0
2015-Feb-28 17:33N 40°56' E 024°25'0 0.0
2015-Feb-28 16:33N 40°56' E 024°25'9 9.3
2015-Feb-28 15:34N 40°47' E 024°27'2322.5
2015-Feb-28 14:33N 40°25' E 024°36'2922.7
2015-Feb-28 13:17N 40°00' E 024°55'150 8.8
2015-Feb-27 20:08N 37°32' E 025°26'711.6
2015-Feb-27 19:34N 37°28' E 025°19'1815.9
2015-Feb-27 18:25N 37°26' E 024°57'8 9.1
2015-Feb-27 17:33N 37°32' E 024°49'4821.7
2015-Feb-27 15:20N 37°38' E 023°49'1620.6
2015-Feb-27 14:33N 37°51' E 023°37'5 5.4
2015-Feb-27 13:33N 37°57' E 023°38'0 0.0
2015-Feb-27 12:33N 37°57' E 023°38'0 0.0
2015-Feb-27 11:33N 37°57' E 023°38'0 0.0
2015-Feb-27 10:33N 37°57' E 023°38'0 0.0
2015-Feb-27 09:33N 37°57' E 023°38'0 0.2
2015-Feb-27 08:33N 37°57' E 023°38'0 0.0
2015-Feb-27 07:33N 37°57' E 023°38'0 0.0
2015-Feb-27 06:33N 37°57' E 023°38'0 0.0
2015-Feb-27 05:33N 37°57' E 023°38'0 0.0
2015-Feb-27 04:33N 37°57' E 023°38'0 0.0
2015-Feb-27 03:33N 37°57' E 023°38'0 0.0
2015-Feb-27 02:33N 37°57' E 023°38'0 0.0
2015-Feb-27 01:33N 37°57' E 023°38'0 0.0
2015-Feb-27 00:33N 37°57' E 023°38'0 0.0
2015-Feb-26 23:33N 37°57' E 023°38'0 0.0
2015-Feb-26 22:33N 37°57' E 023°38'0 0.1
2015-Feb-26 21:33N 37°57' E 023°38'8 8.2
2015-Feb-26 20:34N 37°49' E 023°41'5321.6
2015-Feb-26 18:07N 37°31' E 024°44'1218.6
2015-Feb-26 17:29N 37°26' E 024°57'1616.7
2015-Feb-26 16:34N 37°27' E 025°17'1313.2
2015-Feb-26 15:33N 37°31' E 025°33'154 8.9
2015-Feb-25 22:15N 40°03' E 024°54'1622.3
2015-Feb-25 21:33N 40°16' E 024°44'2322.5
2015-Feb-25 20:33N 40°36' E 024°30'2020.3
2015-Feb-25 19:33N 40°56' E 024°25'0 0.0
2015-Feb-25 18:34N 40°56' E 024°25'0 0.0
2015-Feb-25 17:34N 40°56' E 024°25'0 0.0
2015-Feb-25 16:34N 40°56' E 024°25'1918.6
2015-Feb-25 15:33N 40°38' E 024°29'2222.3
2015-Feb-25 14:34N 40°18' E 024°42'173 9.6
2015-Feb-24 20:33N 37°31' E 025°42'1919.1
2015-Feb-24 19:33N 37°28' E 025°18'1514.8
2015-Feb-24 18:32N 37°26' E 024°59'1211.5
2015-Feb-24 17:31N 37°32' E 024°46'4521.5
2015-Feb-24 15:24N 37°38' E 023°49'1720.5
2015-Feb-24 14:34N 37°53' E 023°37'4 4.2
2015-Feb-24 13:33N 37°57' E 023°38'0 0.0
2015-Feb-24 12:33N 37°57' E 023°38'9 9.0
2015-Feb-24 11:34N 37°48' E 023°41'5223.3
2015-Feb-24 09:19N 37°31' E 024°44'1114.4
2015-Feb-24 08:32N 37°26' E 024°57'2424.0
2015-Feb-24 07:34N 37°32' E 025°25'5 0.4
2015-Feb-23 17:25N 37°32' E 025°32'1922.5
2015-Feb-23 16:33N 37°29' E 025°08'1312.5
2015-Feb-23 15:32N 37°32' E 024°52'5221.5
2015-Feb-23 13:07N 37°37' E 023°47'1221.5
2015-Feb-23 12:33N 37°48' E 023°39'9 9.2
2015-Feb-23 11:33N 37°57' E 023°38'0 0.0
2015-Feb-23 10:33N 37°57' E 023°38'0 0.0
2015-Feb-23 09:34N 37°57' E 023°38'0 0.0
2015-Feb-23 08:33N 37°57' E 023°38'0 0.0
2015-Feb-23 07:34N 37°57' E 023°38'0 0.0
2015-Feb-23 06:34N 37°57' E 023°38'0 0.0
2015-Feb-23 05:33N 37°57' E 023°38'0 0.0
2015-Feb-23 04:33N 37°57' E 023°38'0 0.0
2015-Feb-23 03:33N 37°57' E 023°38'0 0.0
2015-Feb-23 02:34N 37°57' E 023°38'0 0.0
2015-Feb-23 01:34N 37°57' E 023°38'0 0.0
2015-Feb-23 00:34N 37°57' E 023°38'0 0.0
2015-Feb-22 23:33N 37°57' E 023°38'0 0.0
2015-Feb-22 22:33N 37°57' E 023°38'0 0.0
2015-Feb-22 21:33N 37°57' E 023°38'1615.6
2015-Feb-22 20:33N 37°42' E 023°45'2422.6
2015-Feb-22 19:30N 37°32' E 024°12'2522.4
2015-Feb-22 18:23N 37°32' E 024°44'1113.1
2015-Feb-22 17:31N 37°26' E 024°57'1818.9
2015-Feb-22 16:33N 37°28' E 025°19'1515.0
2015-Feb-22 15:33N 37°29' E 025°38'172 9.5
2015-Feb-21 21:29N 40°16' E 024°44'2423.0
2015-Feb-21 20:27N 40°37' E 024°29'1921.7
2015-Feb-21 19:33N 40°56' E 024°25'0 0.1
2015-Feb-21 18:33N 40°56' E 024°25'0 0.0
2015-Feb-21 17:33N 40°56' E 024°25'5 5.0
2015-Feb-21 16:33N 40°51' E 024°26'2322.4
2015-Feb-21 15:33N 40°29' E 024°34'181 9.5
2015-Feb-20 20:33N 37°32' E 025°24'9 9.2
2015-Feb-20 19:33N 37°27' E 025°14'1413.3
2015-Feb-20 18:31N 37°26' E 024°57'  
Track history (hours):
 
Tides and Currents Weather Stations Pressure Air Temp Water Temp Dewpoint Dewpoint Depression Visibility Wind Speed Wind Dir Waves Ship Positions

Nissos Mykonos

Last reported at 2015-Mar-02 17:07 UTC. Time now 2015-Mar-03 07:29 UTC.
Position N 37°31' E 025°22'.

Length 141 m; draft 5.2 m.

Type: Passenger vessel. MMSI: 240389000.

Date/timePositionNaut miles runAvg speedWind from/ knotsBaromVisibWave heightAir tempDewpointWater temp
2015-Mar-02 17:07N 37°31' E 025°22'1222.0
2015-Mar-02 16:33N 37°28' E 025°07'1412.8
2015-Mar-02 15:26N 37°32' E 024°50'4921.6
2015-Mar-02 13:10N 37°38' E 023°49'1320.8
2015-Mar-02 12:33N 37°48' E 023°38'9 8.7
2015-Mar-02 11:33N 37°57' E 023°38'0 0.0
2015-Mar-02 10:33N 37°57' E 023°38'0 0.0
2015-Mar-02 09:32N 37°57' E 023°38'0 0.0
2015-Mar-02 08:34N 37°57' E 023°38'0 0.0
2015-Mar-02 06:22N 37°57' E 023°38'0 0.0
2015-Mar-02 05:33N 37°57' E 023°38'0 0.0
2015-Mar-02 04:33N 37°57' E 023°38'0 0.0
2015-Mar-02 03:34N 37°57' E 023°38'0 0.0
2015-Mar-02 02:34N 37°57' E 023°38'0 0.0
2015-Mar-02 01:34N 37°57' E 023°38'0 0.0
2015-Mar-02 00:33N 37°57' E 023°38'0 0.0
2015-Mar-01 23:34N 37°57' E 023°38'0 0.0
2015-Mar-01 22:33N 37°57' E 023°38'0 0.0
2015-Mar-01 21:34N 37°57' E 023°38'1211.7
2015-Mar-01 20:34N 37°46' E 023°43'6220.6
2015-Mar-01 17:33N 37°26' E 024°57'1616.7
2015-Mar-01 16:33N 37°28' E 025°18'1513.3
2015-Mar-01 15:26N 37°33' E 025°35'167 9.3
2015-Feb-28 21:33N 40°15' E 024°44'2222.8
2015-Feb-28 20:34N 40°35' E 024°31'2121.3
2015-Feb-28 19:33N 40°56' E 024°25'0 0.0
2015-Feb-28 18:33N 40°56' E 024°25'0 0.0
2015-Feb-28 17:33N 40°56' E 024°25'0 0.0
2015-Feb-28 16:33N 40°56' E 024°25'9 9.3
2015-Feb-28 15:34N 40°47' E 024°27'2322.5
2015-Feb-28 14:33N 40°25' E 024°36'2922.7
2015-Feb-28 13:17N 40°00' E 024°55'150 8.8
2015-Feb-27 20:08N 37°32' E 025°26'711.6
2015-Feb-27 19:34N 37°28' E 025°19'1815.9
2015-Feb-27 18:25N 37°26' E 024°57'8 9.1
2015-Feb-27 17:33N 37°32' E 024°49'4821.7
2015-Feb-27 15:20N 37°38' E 023°49'1620.6
2015-Feb-27 14:33N 37°51' E 023°37'5 5.4
2015-Feb-27 13:33N 37°57' E 023°38'0 0.0
2015-Feb-27 12:33N 37°57' E 023°38'0 0.0
2015-Feb-27 11:33N 37°57' E 023°38'0 0.0
2015-Feb-27 10:33N 37°57' E 023°38'0 0.0
2015-Feb-27 09:33N 37°57' E 023°38'0 0.2
2015-Feb-27 08:33N 37°57' E 023°38'0 0.0
2015-Feb-27 07:33N 37°57' E 023°38'0 0.0
2015-Feb-27 06:33N 37°57' E 023°38'0 0.0
2015-Feb-27 05:33N 37°57' E 023°38'0 0.0
2015-Feb-27 04:33N 37°57' E 023°38'0 0.0
2015-Feb-27 03:33N 37°57' E 023°38'0 0.0
2015-Feb-27 02:33N 37°57' E 023°38'0 0.0
2015-Feb-27 01:33N 37°57' E 023°38'0 0.0
2015-Feb-27 00:33N 37°57' E 023°38'0 0.0
2015-Feb-26 23:33N 37°57' E 023°38'0 0.0
2015-Feb-26 22:33N 37°57' E 023°38'0 0.1
2015-Feb-26 21:33N 37°57' E 023°38'8 8.2
2015-Feb-26 20:34N 37°49' E 023°41'5321.6
2015-Feb-26 18:07N 37°31' E 024°44'1218.6
2015-Feb-26 17:29N 37°26' E 024°57'1616.7
2015-Feb-26 16:34N 37°27' E 025°17'1313.2
2015-Feb-26 15:33N 37°31' E 025°33'154 8.9
2015-Feb-25 22:15N 40°03' E 024°54'1622.3
2015-Feb-25 21:33N 40°16' E 024°44'2322.5
2015-Feb-25 20:33N 40°36' E 024°30'2020.3
2015-Feb-25 19:33N 40°56' E 024°25'0 0.0
2015-Feb-25 18:34N 40°56' E 024°25'0 0.0
2015-Feb-25 17:34N 40°56' E 024°25'0 0.0
2015-Feb-25 16:34N 40°56' E 024°25'1918.6
2015-Feb-25 15:33N 40°38' E 024°29'2222.3
2015-Feb-25 14:34N 40°18' E 024°42'173 9.6
2015-Feb-24 20:33N 37°31' E 025°42'1919.1
2015-Feb-24 19:33N 37°28' E 025°18'1514.8
2015-Feb-24 18:32N 37°26' E 024°59'1211.5
2015-Feb-24 17:31N 37°32' E 024°46'4521.5
2015-Feb-24 15:24N 37°38' E 023°49'1720.5
2015-Feb-24 14:34N 37°53' E 023°37'4 4.2
2015-Feb-24 13:33N 37°57' E 023°38'0 0.0
2015-Feb-24 12:33N 37°57' E 023°38'9 9.0
2015-Feb-24 11:34N 37°48' E 023°41'5223.3
2015-Feb-24 09:19N 37°31' E 024°44'1114.4
2015-Feb-24 08:32N 37°26' E 024°57'2424.0
2015-Feb-24 07:34N 37°32' E 025°25'5 0.4
2015-Feb-23 17:25N 37°32' E 025°32'1922.5
2015-Feb-23 16:33N 37°29' E 025°08'1312.5
2015-Feb-23 15:32N 37°32' E 024°52'5221.5
2015-Feb-23 13:07N 37°37' E 023°47'1221.5
2015-Feb-23 12:33N 37°48' E 023°39'9 9.2
2015-Feb-23 11:33N 37°57' E 023°38'0 0.0
2015-Feb-23 10:33N 37°57' E 023°38'0 0.0
2015-Feb-23 09:34N 37°57' E 023°38'0 0.0
2015-Feb-23 08:33N 37°57' E 023°38'0 0.0
2015-Feb-23 07:34N 37°57' E 023°38'0 0.0
2015-Feb-23 06:34N 37°57' E 023°38'0 0.0
2015-Feb-23 05:33N 37°57' E 023°38'0 0.0
2015-Feb-23 04:33N 37°57' E 023°38'0 0.0
2015-Feb-23 03:33N 37°57' E 023°38'0 0.0
2015-Feb-23 02:34N 37°57' E 023°38'0 0.0
2015-Feb-23 01:34N 37°57' E 023°38'0 0.0
2015-Feb-23 00:34N 37°57' E 023°38'0 0.0
2015-Feb-22 23:33N 37°57' E 023°38'0 0.0
2015-Feb-22 22:33N 37°57' E 023°38'0 0.0
2015-Feb-22 21:33N 37°57' E 023°38'1615.6
2015-Feb-22 20:33N 37°42' E 023°45'2422.6
2015-Feb-22 19:30N 37°32' E 024°12'2522.4
2015-Feb-22 18:23N 37°32' E 024°44'1113.1
2015-Feb-22 17:31N 37°26' E 024°57'1818.9
2015-Feb-22 16:33N 37°28' E 025°19'1515.0
2015-Feb-22 15:33N 37°29' E 025°38'172 9.5
2015-Feb-21 21:29N 40°16' E 024°44'2423.0
2015-Feb-21 20:27N 40°37' E 024°29'1921.7
2015-Feb-21 19:33N 40°56' E 024°25'0 0.1
2015-Feb-21 18:33N 40°56' E 024°25'0 0.0
2015-Feb-21 17:33N 40°56' E 024°25'5 5.0
2015-Feb-21 16:33N 40°51' E 024°26'2322.4
2015-Feb-21 15:33N 40°29' E 024°34'181 9.5
2015-Feb-20 20:33N 37°32' E 025°24'9 9.2
2015-Feb-20 19:33N 37°27' E 025°14'1413.3
2015-Feb-20 18:31N 37°26' E 024°57'  

Dump ship's entire track history